createdAt,value
2017-12-19T00:00:23.944Z,14.60
2017-12-19T00:02:52.361Z,15.60
2017-12-19T00:05:21.476Z,16.80
2017-12-19T00:07:49.921Z,18.20
2017-12-19T00:10:20.573Z,16.73
2017-12-19T00:12:48.926Z,16.67
2017-12-19T00:15:17.259Z,14.63
2017-12-19T00:17:45.630Z,15.27
2017-12-19T00:20:13.961Z,15.10
2017-12-19T00:22:43.091Z,13.00
2017-12-19T00:25:12.724Z,14.33
2017-12-19T00:27:41.050Z,14.07
2017-12-19T00:30:10.180Z,14.30
2017-12-19T00:32:38.497Z,16.53
2017-12-19T00:35:06.841Z,14.37
2017-12-19T00:37:35.163Z,16.73
2017-12-19T00:40:03.550Z,14.00
2017-12-19T00:42:32.640Z,16.10
2017-12-19T00:45:00.980Z,15.83
2017-12-19T00:47:29.345Z,15.40
2017-12-19T00:49:57.684Z,14.20
2017-12-19T00:52:26.792Z,15.27
2017-12-19T00:54:55.137Z,14.63
2017-12-19T00:57:23.578Z,14.90
2017-12-19T00:59:51.920Z,14.00
2017-12-19T01:02:21.024Z,13.53
2017-12-19T01:04:49.386Z,14.00
2017-12-19T01:07:18.576Z,13.23
2017-12-19T01:09:47.784Z,14.57
2017-12-19T01:12:16.895Z,14.43
2017-12-19T01:14:45.273Z,14.03
2017-12-19T01:17:13.617Z,12.63
2017-12-19T01:19:42.017Z,13.87
2017-12-19T01:22:11.127Z,13.47
2017-12-19T01:24:39.462Z,14.93
2017-12-19T01:27:07.814Z,13.20
2017-12-19T01:29:36.155Z,15.87
2017-12-19T01:32:04.496Z,14.43
2017-12-19T01:34:32.868Z,14.97
2017-12-19T01:37:01.260Z,14.33
2017-12-19T01:39:29.587Z,14.67
2017-12-19T01:41:57.939Z,15.77
2017-12-19T01:44:26.297Z,14.67
2017-12-19T01:46:55.417Z,15.60
2017-12-19T01:49:23.776Z,13.70
2017-12-19T01:51:52.896Z,13.90
2017-12-19T01:54:21.268Z,14.63
2017-12-19T01:56:49.601Z,14.07
2017-12-19T01:59:17.953Z,15.50
2017-12-19T02:01:46.312Z,14.60
2017-12-19T02:04:14.670Z,15.30
2017-12-19T02:06:43.849Z,15.00
2017-12-19T02:09:12.965Z,12.27
2017-12-19T02:11:41.300Z,12.93
2017-12-19T02:14:09.669Z,13.70
2017-12-19T02:16:40.742Z,13.10
2017-12-19T02:19:09.831Z,14.83
2017-12-19T02:21:38.214Z,14.23
2017-12-19T02:24:07.400Z,13.93
2017-12-19T02:26:35.810Z,12.83
2017-12-19T02:29:04.133Z,11.97
2017-12-19T02:31:32.470Z,13.67
2017-12-19T02:34:00.814Z,14.60
2017-12-19T02:36:29.923Z,12.37
2017-12-19T02:38:59.013Z,12.90
2017-12-19T02:41:28.224Z,12.93
2017-12-19T02:43:57.351Z,13.30
2017-12-19T02:46:25.788Z,13.50
2017-12-19T02:48:54.908Z,13.07
2017-12-19T02:51:23.255Z,12.43
2017-12-19T02:53:51.607Z,12.60
2017-12-19T02:56:20.059Z,13.33
2017-12-19T02:58:48.393Z,13.07
2017-12-19T03:01:17.485Z,13.90
2017-12-19T03:03:46.632Z,13.40
2017-12-19T03:06:14.948Z,13.30
2017-12-19T03:08:43.284Z,12.40
2017-12-19T03:11:11.639Z,14.47
2017-12-19T03:13:40.072Z,13.80
2017-12-19T03:16:08.417Z,14.90
2017-12-19T03:18:36.742Z,14.20
2017-12-19T03:21:05.104Z,13.27
2017-12-19T03:23:33.442Z,14.70
2017-12-19T03:26:01.776Z,13.60
2017-12-19T03:28:30.924Z,14.77
2017-12-19T03:30:59.260Z,12.83
2017-12-19T03:33:28.360Z,13.17
2017-12-19T03:35:57.547Z,14.03
2017-12-19T03:38:26.720Z,15.00
2017-12-19T03:40:55.050Z,15.00
2017-12-19T03:43:23.377Z,13.80
2017-12-19T03:45:51.756Z,13.73
2017-12-19T03:48:20.176Z,13.60
2017-12-19T03:50:48.510Z,14.87
2017-12-19T03:53:16.874Z,14.30
2017-12-19T03:55:45.240Z,14.67
2017-12-19T03:58:13.608Z,15.80
2017-12-19T04:00:41.929Z,15.03
2017-12-19T04:03:10.335Z,14.40
2017-12-19T04:05:38.685Z,15.60
2017-12-19T04:08:07.036Z,14.90
2017-12-19T04:10:35.399Z,13.90
2017-12-19T04:13:03.752Z,14.47
2017-12-19T04:15:32.113Z,16.57
2017-12-19T04:18:01.271Z,14.40
2017-12-19T04:20:29.683Z,15.03
2017-12-19T04:22:58.782Z,14.50
2017-12-19T04:25:27.920Z,15.10
2017-12-19T04:27:56.250Z,15.53
2017-12-19T04:30:24.574Z,16.23
2017-12-19T04:32:52.922Z,15.17
2017-12-19T04:35:21.269Z,16.37
2017-12-19T04:37:49.723Z,16.70
2017-12-19T04:40:18.053Z,14.30
2017-12-19T04:42:47.150Z,14.40
2017-12-19T04:45:16.276Z,13.93
2017-12-19T04:47:44.635Z,17.37
2017-12-19T04:50:13.054Z,15.90
2017-12-19T04:52:41.404Z,16.00
2017-12-19T04:55:09.871Z,14.83
2017-12-19T04:57:38.220Z,14.47
2017-12-19T05:00:07.331Z,16.80
2017-12-19T05:02:36.463Z,15.50
2017-12-19T05:05:04.799Z,15.63
2017-12-19T05:07:33.920Z,15.57
2017-12-19T05:10:02.283Z,15.90
2017-12-19T05:12:30.619Z,16.20
2017-12-19T05:14:58.970Z,16.47
2017-12-19T05:17:27.299Z,16.60
2017-12-19T05:19:56.426Z,16.77
2017-12-19T05:22:24.800Z,17.20
2017-12-19T05:24:53.144Z,16.93
2017-12-19T05:27:22.272Z,17.43
2017-12-19T05:29:50.588Z,19.83
2017-12-19T05:32:19.011Z,19.63
2017-12-19T05:34:48.104Z,17.90
2017-12-19T05:37:17.222Z,19.57
2017-12-19T05:39:45.621Z,22.00
2017-12-19T05:42:13.972Z,22.27
2017-12-19T05:44:42.431Z,23.30
2017-12-19T05:47:11.526Z,22.87
2017-12-19T05:49:40.700Z,23.40
2017-12-19T05:52:09.017Z,24.93
2017-12-19T05:54:37.347Z,27.30
2017-12-19T05:57:05.724Z,27.70
2017-12-19T05:59:34.066Z,24.90
2017-12-19T06:02:02.391Z,27.40
2017-12-19T06:04:30.741Z,27.83
2017-12-19T06:06:59.164Z,26.97
2017-12-19T06:09:28.380Z,28.50
2017-12-19T06:11:56.707Z,28.60
2017-12-19T06:14:25.101Z,26.40
2017-12-19T06:16:53.488Z,27.87
2017-12-19T06:19:21.812Z,27.07
2017-12-19T06:21:50.170Z,28.87
2017-12-19T06:24:18.529Z,28.17
2017-12-19T06:26:47.665Z,29.73
2017-12-19T06:29:16.030Z,29.03
2017-12-19T06:31:44.352Z,32.00
2017-12-19T06:34:12.740Z,30.50
2017-12-19T06:36:41.117Z,30.83
2017-12-19T06:39:09.428Z,30.67
2017-12-19T06:41:37.826Z,33.10
2017-12-19T06:44:06.145Z,33.97
2017-12-19T06:46:34.506Z,32.43
2017-12-19T06:49:02.824Z,36.17
2017-12-19T06:51:31.949Z,32.30
2017-12-19T06:54:00.286Z,31.80
2017-12-19T06:56:28.630Z,34.37
2017-12-19T06:58:57.017Z,37.50
2017-12-19T07:01:25.431Z,33.53
2017-12-19T07:03:54.615Z,32.10
2017-12-19T07:06:22.973Z,36.07
2017-12-19T07:08:51.379Z,36.40
2017-12-19T07:11:19.719Z,33.90
2017-12-19T07:13:48.053Z,35.20
2017-12-19T07:16:16.381Z,33.10
2017-12-19T07:18:44.744Z,33.57
2017-12-19T07:21:13.166Z,33.37
2017-12-19T07:23:42.261Z,34.60
2017-12-19T07:26:11.402Z,34.10
2017-12-19T07:28:39.720Z,35.90
2017-12-19T07:31:08.060Z,32.70
2017-12-19T07:33:36.425Z,32.00
2017-12-19T07:36:04.744Z,31.77
2017-12-19T07:38:33.075Z,33.00
2017-12-19T07:41:01.432Z,31.63
2017-12-19T07:43:30.619Z,31.80
2017-12-19T07:45:59.747Z,29.27
2017-12-19T07:48:28.105Z,29.90
2017-12-19T07:50:57.253Z,30.10
2017-12-19T07:53:25.635Z,30.17
2017-12-19T07:55:54.917Z,28.30
2017-12-19T07:58:23.255Z,31.23
2017-12-19T08:00:52.362Z,29.13
2017-12-19T08:03:20.701Z,29.23
2017-12-19T08:05:49.076Z,30.90
2017-12-19T08:08:17.403Z,29.73
2017-12-19T08:10:45.723Z,29.17
2017-12-19T08:13:14.087Z,28.47
2017-12-19T08:15:42.410Z,33.10
2017-12-19T08:18:11.517Z,30.13
2017-12-19T08:20:40.683Z,29.37
2017-12-19T08:23:09.016Z,33.30
2017-12-19T08:25:37.440Z,30.23
2017-12-19T08:28:05.829Z,31.00
2017-12-19T08:30:34.916Z,31.53
2017-12-19T08:33:03.229Z,31.50
2017-12-19T08:35:31.582Z,31.47
2017-12-19T08:38:00.873Z,30.87
2017-12-19T08:40:30.080Z,30.80
2017-12-19T08:42:59.231Z,34.40
2017-12-19T08:45:27.551Z,34.17
2017-12-19T08:47:56.663Z,31.43
2017-12-19T08:50:25.040Z,32.10
2017-12-19T08:52:54.147Z,33.70
2017-12-19T08:55:22.459Z,33.40
2017-12-19T08:57:50.865Z,36.33
2017-12-19T09:00:19.197Z,34.47
2017-12-19T09:02:47.564Z,36.23
2017-12-19T09:05:15.935Z,35.93
2017-12-19T09:07:44.268Z,35.30
2017-12-19T09:10:12.624Z,35.70
2017-12-19T09:12:41.058Z,38.20
2017-12-19T09:15:09.451Z,37.00
2017-12-19T09:17:37.835Z,33.40
2017-12-19T09:20:06.156Z,36.10
2017-12-19T09:22:34.488Z,35.80
2017-12-19T09:25:02.905Z,38.50
2017-12-19T09:27:31.312Z,38.53
2017-12-19T09:30:00.414Z,43.43
2017-12-19T09:32:29.748Z,39.07
2017-12-19T09:34:58.079Z,39.63
2017-12-19T09:37:27.181Z,39.20
2017-12-19T09:39:56.300Z,40.37
2017-12-19T09:42:24.652Z,38.60
2017-12-19T09:44:53.771Z,37.83
2017-12-19T09:47:22.218Z,37.20
2017-12-19T09:49:50.544Z,39.43
2017-12-19T09:52:18.868Z,37.73
2017-12-19T09:54:47.270Z,38.63
2017-12-19T09:57:16.405Z,37.00
2017-12-19T09:59:44.738Z,34.70
2017-12-19T10:02:13.877Z,38.27
2017-12-19T10:04:42.256Z,35.90
2017-12-19T10:07:10.601Z,35.73
2017-12-19T10:09:38.922Z,35.97
2017-12-19T10:12:07.284Z,35.40
2017-12-19T10:14:35.577Z,35.63
2017-12-19T10:17:03.890Z,33.10
2017-12-19T10:19:32.241Z,35.87
2017-12-19T10:22:00.557Z,36.00
2017-12-19T10:24:29.731Z,34.07
2017-12-19T10:26:58.089Z,35.33
2017-12-19T10:29:26.416Z,34.53
2017-12-19T10:31:54.751Z,35.40
2017-12-19T10:34:23.127Z,36.10
2017-12-19T10:36:51.457Z,33.47
2017-12-19T10:39:19.806Z,36.20
2017-12-19T10:41:49.096Z,34.53
2017-12-19T10:44:17.432Z,34.27
2017-12-19T10:46:45.775Z,36.47
2017-12-19T10:49:14.101Z,31.50
2017-12-19T10:51:42.475Z,32.90
2017-12-19T10:54:10.791Z,33.77
2017-12-19T10:56:39.898Z,32.07
2017-12-19T10:59:09.020Z,29.37
2017-12-19T11:01:37.353Z,28.93
2017-12-19T11:04:05.680Z,31.00
2017-12-19T11:06:34.054Z,31.20
2017-12-19T11:09:02.373Z,25.90
2017-12-19T11:11:30.697Z,29.90
2017-12-19T11:13:59.032Z,27.03
2017-12-19T11:16:28.884Z,26.97
2017-12-19T11:18:57.246Z,28.10
2017-12-19T11:21:26.342Z,28.00
2017-12-19T11:23:55.462Z,26.60
2017-12-19T11:26:23.786Z,25.63
2017-12-19T11:28:52.108Z,24.30
2017-12-19T11:31:20.458Z,25.57
2017-12-19T11:33:50.441Z,22.70
2017-12-19T11:36:18.784Z,24.47
2017-12-19T11:38:47.110Z,23.70
2017-12-19T11:41:15.481Z,25.27
2017-12-19T11:43:43.816Z,23.20
2017-12-19T11:46:12.146Z,22.40
2017-12-19T11:48:40.520Z,22.47
2017-12-19T11:51:09.073Z,20.90
2017-12-19T11:53:37.407Z,22.10
2017-12-19T11:56:06.537Z,20.97
2017-12-19T11:58:34.856Z,20.47
2017-12-19T12:01:03.203Z,22.20
2017-12-19T12:03:31.531Z,18.80
2017-12-19T12:06:00.675Z,19.67
2017-12-19T12:08:29.050Z,21.20
2017-12-19T12:10:57.500Z,17.77
2017-12-19T12:16:01.100Z,19.63
2017-12-19T12:18:30.238Z,18.67
2017-12-19T12:20:58.559Z,17.50
2017-12-19T12:23:26.954Z,17.50
2017-12-19T12:25:56.079Z,17.13
2017-12-19T12:28:24.422Z,17.23
2017-12-19T12:30:53.564Z,15.90
2017-12-19T12:33:22.042Z,14.33
2017-12-19T12:35:50.380Z,13.73
2017-12-19T12:38:19.474Z,16.80
2017-12-19T12:40:48.596Z,14.97
2017-12-19T12:43:16.969Z,14.67
2017-12-19T12:45:45.496Z,14.03
2017-12-19T12:48:13.850Z,13.93
2017-12-19T12:50:42.179Z,12.27
2017-12-19T12:53:11.299Z,14.17
2017-12-19T12:55:39.651Z,12.20
2017-12-19T12:58:08.787Z,11.60
2017-12-19T13:00:37.125Z,11.00
2017-12-19T13:03:06.260Z,10.90
2017-12-19T13:05:34.611Z,11.23
2017-12-19T13:08:02.944Z,11.30
2017-12-19T13:10:31.378Z,8.87
2017-12-19T13:12:59.776Z,9.03
2017-12-19T13:15:28.111Z,10.80
2017-12-19T13:17:57.314Z,10.23
2017-12-19T13:20:26.427Z,8.40
2017-12-19T13:22:54.744Z,8.40
2017-12-19T13:25:23.149Z,8.30
2017-12-19T13:27:51.487Z,10.40
2017-12-19T13:30:19.952Z,9.33
2017-12-19T13:32:48.418Z,11.33
2017-12-19T13:35:16.785Z,9.83
2017-12-19T13:37:45.897Z,10.17
2017-12-19T13:40:14.225Z,11.07
2017-12-19T13:42:42.623Z,11.10
2017-12-19T13:45:10.969Z,11.73
2017-12-19T13:47:39.389Z,10.83
2017-12-19T13:50:08.584Z,10.63
2017-12-19T13:52:37.687Z,12.70
2017-12-19T13:55:06.060Z,11.03
2017-12-19T13:57:35.236Z,10.50
2017-12-19T14:00:03.586Z,11.70
2017-12-19T14:02:31.922Z,10.20
2017-12-19T14:05:00.282Z,11.93
2017-12-19T14:07:29.468Z,11.53
2017-12-19T14:09:57.944Z,10.63
2017-12-19T14:12:26.272Z,9.60
2017-12-19T14:14:54.608Z,10.80
2017-12-19T14:17:23.739Z,10.80
2017-12-19T14:19:52.076Z,11.73
2017-12-19T14:22:20.474Z,10.80
2017-12-19T14:24:49.602Z,11.60
2017-12-19T14:27:18.029Z,11.20
2017-12-19T14:29:46.367Z,11.60
2017-12-19T14:32:14.715Z,12.00
2017-12-19T14:34:43.166Z,11.00
2017-12-19T14:37:11.479Z,11.00
2017-12-19T14:39:39.797Z,12.00
2017-12-19T14:42:08.157Z,11.47
2017-12-19T14:44:36.624Z,11.40
2017-12-19T14:47:04.955Z,11.57
2017-12-19T14:49:34.087Z,10.40
2017-12-19T14:52:02.452Z,10.10
2017-12-19T14:54:30.784Z,11.80
2017-12-19T14:56:59.121Z,12.40
2017-12-19T14:59:27.476Z,12.77
2017-12-19T15:01:56.556Z,12.40
2017-12-19T15:04:25.661Z,10.70
2017-12-19T15:06:54.785Z,11.23
2017-12-19T15:09:23.125Z,11.97
2017-12-19T15:11:52.222Z,11.47
2017-12-19T15:14:21.345Z,12.20
2017-12-19T15:16:49.675Z,12.20
2017-12-19T15:19:18.020Z,11.93
2017-12-19T15:21:46.365Z,11.60
2017-12-19T15:24:14.712Z,11.70
2017-12-19T15:26:43.048Z,12.80
2017-12-19T15:29:11.373Z,13.27
2017-12-19T15:31:39.730Z,13.80
2017-12-19T15:34:08.149Z,14.43
2017-12-19T15:36:37.267Z,16.07
2017-12-19T15:39:05.607Z,14.80
2017-12-19T15:41:33.971Z,14.63
2017-12-19T15:44:03.128Z,15.43
2017-12-19T15:46:31.462Z,15.60
2017-12-19T15:49:00.569Z,17.07
2017-12-19T15:51:29.732Z,17.43
2017-12-19T15:53:58.057Z,18.03
2017-12-19T15:56:26.397Z,16.50
2017-12-19T15:58:54.810Z,15.83
2017-12-19T16:01:23.148Z,18.80
2017-12-19T16:03:51.687Z,16.10
2017-12-19T16:06:20.028Z,17.37
2017-12-19T16:08:49.174Z,17.83
2017-12-19T16:11:17.520Z,16.73
2017-12-19T16:13:45.873Z,19.27
2017-12-19T16:16:14.968Z,15.60
2017-12-19T16:18:44.089Z,17.33
2017-12-19T16:21:12.416Z,15.87
2017-12-19T16:23:40.820Z,15.77
2017-12-19T16:26:09.957Z,18.50
2017-12-19T16:28:38.293Z,19.07
2017-12-19T16:31:07.437Z,18.83
2017-12-19T16:33:35.768Z,18.70
2017-12-19T16:36:04.162Z,18.20
2017-12-19T16:38:33.276Z,16.73
2017-12-19T16:41:01.620Z,18.53
2017-12-19T16:43:30.818Z,16.40
2017-12-19T16:45:59.933Z,19.20
2017-12-19T16:48:28.293Z,16.93
2017-12-19T16:50:57.453Z,17.43
2017-12-19T16:53:25.863Z,17.60
2017-12-19T16:55:54.208Z,18.03
2017-12-19T16:58:22.565Z,17.73
2017-12-19T17:00:50.926Z,19.00
2017-12-19T17:03:19.253Z,16.70
2017-12-19T17:05:47.596Z,16.93
2017-12-19T17:08:15.928Z,18.80
2017-12-19T17:10:44.276Z,18.50
2017-12-19T17:13:13.408Z,17.90
2017-12-19T17:15:42.532Z,18.13
2017-12-19T17:18:10.844Z,18.60
2017-12-19T17:20:39.181Z,19.63
2017-12-19T17:23:07.550Z,19.53
2017-12-19T17:25:35.952Z,21.07
2017-12-19T17:28:04.401Z,18.80
2017-12-19T17:30:32.772Z,18.90
2017-12-19T17:33:01.131Z,19.00
2017-12-19T17:35:29.489Z,18.90
2017-12-19T17:37:57.840Z,16.40
2017-12-19T17:40:26.156Z,18.77
2017-12-19T17:42:54.523Z,17.13
2017-12-19T17:45:22.875Z,17.30
2017-12-19T17:47:51.250Z,16.13
2017-12-19T17:50:19.626Z,17.90
2017-12-19T17:52:47.970Z,17.23
2017-12-19T17:55:17.072Z,18.70
2017-12-19T17:57:46.220Z,17.70
2017-12-19T18:00:14.547Z,18.47
2017-12-19T18:02:43.641Z,19.47
2017-12-19T18:05:12.854Z,19.47
2017-12-19T18:07:41.320Z,18.47
2017-12-19T18:10:09.927Z,20.57
2017-12-19T18:12:39.277Z,19.50
2017-12-19T18:15:09.150Z,20.07
2017-12-19T18:17:37.473Z,20.27
2017-12-19T18:20:06.648Z,17.20
2017-12-19T18:22:34.999Z,21.47
2017-12-19T18:25:03.362Z,21.80
2017-12-19T18:27:32.932Z,19.90
2017-12-19T18:30:01.364Z,21.07
2017-12-19T18:32:29.729Z,21.07
2017-12-19T18:34:58.121Z,20.93
2017-12-19T18:37:26.472Z,18.43
2017-12-19T18:39:54.801Z,29.10
2017-12-19T18:42:23.172Z,24.50
2017-12-19T18:44:51.576Z,26.30
2017-12-19T18:47:19.902Z,20.07
2017-12-19T18:49:48.281Z,19.90
2017-12-19T18:52:16.611Z,18.50
2017-12-19T18:54:44.973Z,19.33
2017-12-19T18:57:13.303Z,20.07
2017-12-19T18:59:41.694Z,19.87
2017-12-19T19:02:10.124Z,18.43
2017-12-19T19:04:38.460Z,21.00
2017-12-19T19:07:06.879Z,18.33
2017-12-19T19:09:35.220Z,19.47
2017-12-19T19:12:03.547Z,19.33
2017-12-19T19:14:31.920Z,22.10
2017-12-19T19:17:01.040Z,21.90
2017-12-19T19:19:29.378Z,21.40
2017-12-19T19:21:59.249Z,19.83
2017-12-19T19:24:27.613Z,21.13
2017-12-19T19:26:55.972Z,20.07
2017-12-19T19:29:25.157Z,19.77
2017-12-19T19:31:54.274Z,21.17
2017-12-19T19:34:22.609Z,19.60
2017-12-19T19:36:50.995Z,22.10
2017-12-19T19:39:19.371Z,22.63
2017-12-19T19:41:47.706Z,25.37
2017-12-19T19:44:16.076Z,23.13
2017-12-19T19:46:44.467Z,27.50
2017-12-19T19:49:12.797Z,25.77
2017-12-19T19:51:41.927Z,23.53
2017-12-19T19:54:10.254Z,24.50
2017-12-19T19:56:38.581Z,25.17
2017-12-19T19:59:06.942Z,25.60
2017-12-19T20:01:35.279Z,22.53
2017-12-19T20:04:03.611Z,26.57
2017-12-19T20:06:31.968Z,25.53
2017-12-19T20:09:01.142Z,27.03
2017-12-19T20:11:30.232Z,23.73
2017-12-19T20:13:58.643Z,26.37
2017-12-19T20:16:27.870Z,23.23
2017-12-19T20:18:56.232Z,27.23
2017-12-19T20:21:24.564Z,24.60
2017-12-19T20:23:52.966Z,37.60
2017-12-19T20:26:22.062Z,35.43
2017-12-19T20:28:51.203Z,28.40
2017-12-19T20:31:19.530Z,31.83
2017-12-19T20:33:48.632Z,28.53
2017-12-19T20:36:17.758Z,27.63
2017-12-19T20:38:46.196Z,26.90
2017-12-19T20:41:15.356Z,29.77
2017-12-19T20:43:43.676Z,29.30
2017-12-19T20:46:12.785Z,28.47
2017-12-19T20:48:41.124Z,29.33
2017-12-19T20:51:09.452Z,29.03
2017-12-19T20:53:37.839Z,32.07
2017-12-19T20:56:06.162Z,32.13
2017-12-19T20:58:34.499Z,31.93
2017-12-19T21:01:02.838Z,31.20
2017-12-19T21:03:31.939Z,34.23
2017-12-19T21:06:01.058Z,32.13
2017-12-19T21:08:29.409Z,35.00
2017-12-19T21:10:58.549Z,33.97
2017-12-19T21:13:26.903Z,31.60
2017-12-19T21:15:55.228Z,34.90
2017-12-19T21:18:23.594Z,36.40
2017-12-19T21:20:51.938Z,37.90
2017-12-19T21:23:20.296Z,38.77
2017-12-19T21:28:23.264Z,33.10
2017-12-19T21:30:51.615Z,36.80
2017-12-19T21:33:19.973Z,31.90
2017-12-19T21:35:48.312Z,31.97
2017-12-19T21:38:17.457Z,36.80
2017-12-19T21:40:45.792Z,35.23
2017-12-19T21:43:14.942Z,36.87
2017-12-19T21:45:43.273Z,34.57
2017-12-19T21:48:12.360Z,31.30
2017-12-19T21:50:41.489Z,35.60
2017-12-19T21:53:10.017Z,35.07
2017-12-19T21:55:38.373Z,33.33
2017-12-19T21:58:06.801Z,39.20
2017-12-19T22:00:35.932Z,39.87
2017-12-19T22:03:04.273Z,37.47
2017-12-19T22:05:33.376Z,35.80
2017-12-19T22:08:01.728Z,34.20
2017-12-19T22:10:30.067Z,36.77
2017-12-19T22:12:58.447Z,37.80
2017-12-19T22:15:26.787Z,35.50
2017-12-19T22:17:55.121Z,35.70
2017-12-19T22:20:23.493Z,36.23
2017-12-19T22:22:51.859Z,31.50
2017-12-19T22:25:20.212Z,31.30
2017-12-19T22:27:48.535Z,35.50
2017-12-19T22:30:16.892Z,35.20
2017-12-19T22:32:45.254Z,34.47
2017-12-19T22:35:13.602Z,36.70
2017-12-19T22:37:42.692Z,32.80
2017-12-19T22:40:11.826Z,31.23
2017-12-19T22:42:40.159Z,33.17
2017-12-19T22:45:09.339Z,31.57
2017-12-19T22:47:37.739Z,33.00
2017-12-19T22:50:06.839Z,37.07
2017-12-19T22:52:35.988Z,35.97
2017-12-19T22:55:04.304Z,35.77
2017-12-19T22:57:33.493Z,35.43
2017-12-19T23:00:01.861Z,38.17
2017-12-19T23:02:30.209Z,37.90
2017-12-19T23:04:58.561Z,34.47
2017-12-19T23:07:26.922Z,34.17
2017-12-19T23:09:56.066Z,36.13
2017-12-19T23:12:24.392Z,37.17
2017-12-19T23:14:53.487Z,34.60
2017-12-19T23:17:22.611Z,35.30
2017-12-19T23:19:50.961Z,36.07
2017-12-19T23:22:20.076Z,34.23
2017-12-19T23:24:48.517Z,37.97
2017-12-19T23:27:16.902Z,41.70
2017-12-19T23:29:45.988Z,39.60
2017-12-19T23:32:14.374Z,36.10
2017-12-19T23:34:43.525Z,36.90
2017-12-19T23:37:11.869Z,37.87
2017-12-19T23:39:40.245Z,36.23
2017-12-19T23:42:08.603Z,38.70
2017-12-19T23:44:37.717Z,37.17
2017-12-19T23:47:06.076Z,37.27
2017-12-19T23:49:34.401Z,36.67
2017-12-19T23:52:02.772Z,35.30
2017-12-19T23:54:31.109Z,36.03
2017-12-19T23:57:00.203Z,37.33
2017-12-19T23:59:29.308Z,33.47
